sensor_id;sensor_type;location;lat;lon;timestamp;temperature;humidity
7564;DHT22;3823;53.586;10.040;2023-02-05T00:01:51;1.40;99.90
7564;DHT22;3823;53.586;10.040;2023-02-05T00:04:16;1.40;99.90
7564;DHT22;3823;53.586;10.040;2023-02-05T00:06:42;1.30;99.90
7564;DHT22;3823;53.586;10.040;2023-02-05T00:09:08;1.20;99.90
7564;DHT22;3823;53.586;10.040;2023-02-05T00:11:33;1.10;99.90
7564;DHT22;3823;53.586;10.040;2023-02-05T00:13:59;1.10;99.90
7564;DHT22;3823;53.586;10.040;2023-02-05T00:16:24;1.10;99.90
7564;DHT22;3823;53.586;10.040;2023-02-05T00:18:51;1.00;99.90
7564;DHT22;3823;53.586;10.040;2023-02-05T00:21:18;0.90;99.90
7564;DHT22;3823;53.586;10.040;2023-02-05T00:23:44;0.90;99.90
7564;DHT22;3823;53.586;10.040;2023-02-05T00:26:09;0.90;99.90
7564;DHT22;3823;53.586;10.040;2023-02-05T00:28:35;0.90;99.90
7564;DHT22;3823;53.586;10.040;2023-02-05T00:31:11;0.80;99.90
7564;DHT22;3823;53.586;10.040;2023-02-05T00:33:37;0.80;99.90
7564;DHT22;3823;53.586;10.040;2023-02-05T00:36:03;0.80;99.90
7564;DHT22;3823;53.586;10.040;2023-02-05T00:38:29;0.70;99.90
7564;DHT22;3823;53.586;10.040;2023-02-05T00:40:54;0.70;99.90
7564;DHT22;3823;53.586;10.040;2023-02-05T00:43:20;0.70;99.90
7564;DHT22;3823;53.586;10.040;2023-02-05T00:45:46;0.60;99.90
7564;DHT22;3823;53.586;10.040;2023-02-05T00:48:11;0.60;99.90
7564;DHT22;3823;53.586;10.040;2023-02-05T00:50:37;0.60;99.90
7564;DHT22;3823;53.586;10.040;2023-02-05T00:53:03;0.60;99.90
7564;DHT22;3823;53.586;10.040;2023-02-05T00:55:28;0.70;99.90
7564;DHT22;3823;53.586;10.040;2023-02-05T00:57:54;0.70;99.90
7564;DHT22;3823;53.586;10.040;2023-02-05T01:00:20;0.70;99.90
7564;DHT22;3823;53.586;10.040;2023-02-05T01:02:45;0.70;99.90
7564;DHT22;3823;53.586;10.040;2023-02-05T01:05:11;0.70;99.90
7564;DHT22;3823;53.586;10.040;2023-02-05T01:07:37;0.60;99.90
7564;DHT22;3823;53.586;10.040;2023-02-05T01:10:03;0.60;99.90
7564;DHT22;3823;53.586;10.040;2023-02-05T01:12:29;0.70;99.90
7564;DHT22;3823;53.586;10.040;2023-02-05T01:14:58;0.80;99.90
7564;DHT22;3823;53.586;10.040;2023-02-05T01:17:23;0.70;99.90
7564;DHT22;3823;53.586;10.040;2023-02-05T01:19:49;0.60;99.90
7564;DHT22;3823;53.586;10.040;2023-02-05T01:22:14;0.60;99.90
7564;DHT22;3823;53.586;10.040;2023-02-05T01:24:40;0.50;99.90
7564;DHT22;3823;53.586;10.040;2023-02-05T01:27:05;0.40;99.90
7564;DHT22;3823;53.586;10.040;2023-02-05T01:29:31;0.50;99.90
7564;DHT22;3823;53.586;10.040;2023-02-05T01:31:57;0.40;99.90
7564;DHT22;3823;53.586;10.040;2023-02-05T01:34:22;0.40;99.90
7564;DHT22;3823;53.586;10.040;2023-02-05T01:36:48;0.40;99.90
7564;DHT22;3823;53.586;10.040;2023-02-05T01:39:13;0.30;99.90
7564;DHT22;3823;53.586;10.040;2023-02-05T01:41:40;0.30;99.90
7564;DHT22;3823;53.586;10.040;2023-02-05T01:44:19;0.40;99.90
7564;DHT22;3823;53.586;10.040;2023-02-05T01:46:52;0.40;99.90
7564;DHT22;3823;53.586;10.040;2023-02-05T01:51:47;0.50;99.90
7564;DHT22;3823;53.586;10.040;2023-02-05T01:54:14;0.50;99.90
7564;DHT22;3823;53.586;10.040;2023-02-05T01:56:47;0.50;99.90
7564;DHT22;3823;53.586;10.040;2023-02-05T01:59:19;0.40;99.90
7564;DHT22;3823;53.586;10.040;2023-02-05T02:01:46;0.30;99.90
7564;DHT22;3823;53.586;10.040;2023-02-05T02:04:15;0.30;99.90
7564;DHT22;3823;53.586;10.040;2023-02-05T02:06:43;0.20;99.90
7564;DHT22;3823;53.586;10.040;2023-02-05T02:09:08;0.20;99.90
7564;DHT22;3823;53.586;10.040;2023-02-05T02:11:37;0.10;99.90
7564;DHT22;3823;53.586;10.040;2023-02-05T02:14:07;0.10;99.90
7564;DHT22;3823;53.586;10.040;2023-02-05T02:16:35;0.10;99.90
7564;DHT22;3823;53.586;10.040;2023-02-05T02:19:06;0.10;99.90
7564;DHT22;3823;53.586;10.040;2023-02-05T02:24:30;0.20;99.90
7564;DHT22;3823;53.586;10.040;2023-02-05T02:27:31;0.20;99.90
7564;DHT22;3823;53.586;10.040;2023-02-05T02:35:21;0.20;99.90
7564;DHT22;3823;53.586;10.040;2023-02-05T02:38:07;0.30;99.90
7564;DHT22;3823;53.586;10.040;2023-02-05T02:40:45;0.30;99.90
7564;DHT22;3823;53.586;10.040;2023-02-05T02:43:17;0.30;99.90
7564;DHT22;3823;53.586;10.040;2023-02-05T02:46:33;0.30;99.90
7564;DHT22;3823;53.586;10.040;2023-02-05T02:48:59;0.40;99.90
7564;DHT22;3823;53.586;10.040;2023-02-05T02:51:27;0.40;99.90
7564;DHT22;3823;53.586;10.040;2023-02-05T02:53:58;0.50;99.90
7564;DHT22;3823;53.586;10.040;2023-02-05T02:56:27;0.50;99.90
7564;DHT22;3823;53.586;10.040;2023-02-05T02:58:59;0.40;99.90
7564;DHT22;3823;53.586;10.040;2023-02-05T03:01:28;0.40;99.90
7564;DHT22;3823;53.586;10.040;2023-02-05T03:03:58;0.50;99.90
7564;DHT22;3823;53.586;10.040;2023-02-05T03:06:27;0.40;99.90
7564;DHT22;3823;53.586;10.040;2023-02-05T03:11:41;0.30;99.90
7564;DHT22;3823;53.586;10.040;2023-02-05T03:14:07;0.10;99.90
7564;DHT22;3823;53.586;10.040;2023-02-05T03:16:32;0.10;99.90
7564;DHT22;3823;53.586;10.040;2023-02-05T03:18:58;0.10;99.90
7564;DHT22;3823;53.586;10.040;2023-02-05T03:21:53;0.20;99.90
7564;DHT22;3823;53.586;10.040;2023-02-05T03:24:20;0.20;99.90
7564;DHT22;3823;53.586;10.040;2023-02-05T03:26:46;0.20;99.90
7564;DHT22;3823;53.586;10.040;2023-02-05T03:29:14;0.20;99.90
7564;DHT22;3823;53.586;10.040;2023-02-05T03:32:00;0.20;99.90
7564;DHT22;3823;53.586;10.040;2023-02-05T03:43:58;0.10;99.90
7564;DHT22;3823;53.586;10.040;2023-02-05T03:46:43;0.10;99.90
7564;DHT22;3823;53.586;10.040;2023-02-05T03:49:27;0.00;99.90
7564;DHT22;3823;53.586;10.040;2023-02-05T03:52:03;0.00;99.90
7564;DHT22;3823;53.586;10.040;2023-02-05T03:54:55;-0.10;99.90
7564;DHT22;3823;53.586;10.040;2023-02-05T03:57:30;-0.10;99.90
7564;DHT22;3823;53.586;10.040;2023-02-05T03:59:58;0.00;99.90
7564;DHT22;3823;53.586;10.040;2023-02-05T04:02:24;-0.10;99.90
7564;DHT22;3823;53.586;10.040;2023-02-05T04:04:50;-0.10;99.90
7564;DHT22;3823;53.586;10.040;2023-02-05T04:07:15;-0.10;99.90
7564;DHT22;3823;53.586;10.040;2023-02-05T04:09:41;0.00;99.90
7564;DHT22;3823;53.586;10.040;2023-02-05T04:12:06;0.10;99.90
7564;DHT22;3823;53.586;10.040;2023-02-05T04:14:32;0.10;99.90
7564;DHT22;3823;53.586;10.040;2023-02-05T04:16:58;0.10;99.90
7564;DHT22;3823;53.586;10.040;2023-02-05T04:19:23;0.20;99.90
7564;DHT22;3823;53.586;10.040;2023-02-05T04:21:49;0.20;99.90
7564;DHT22;3823;53.586;10.040;2023-02-05T04:24:14;0.20;99.90
7564;DHT22;3823;53.586;10.040;2023-02-05T04:26:40;0.20;99.90
7564;DHT22;3823;53.586;10.040;2023-02-05T04:29:05;0.20;99.90
7564;DHT22;3823;53.586;10.040;2023-02-05T04:31:31;0.10;99.90
7564;DHT22;3823;53.586;10.040;2023-02-05T04:33:57;0.10;99.90
7564;DHT22;3823;53.586;10.040;2023-02-05T04:36:22;0.10;99.90
7564;DHT22;3823;53.586;10.040;2023-02-05T04:38:48;0.10;99.90
7564;DHT22;3823;53.586;10.040;2023-02-05T04:41:13;0.10;99.90
7564;DHT22;3823;53.586;10.040;2023-02-05T04:43:39;0.00;99.90
7564;DHT22;3823;53.586;10.040;2023-02-05T04:46:09;0.00;99.90
7564;DHT22;3823;53.586;10.040;2023-02-05T04:48:36;0.00;99.90
7564;DHT22;3823;53.586;10.040;2023-02-05T04:51:19;0.00;99.90
7564;DHT22;3823;53.586;10.040;2023-02-05T04:53:45;0.00;99.90
7564;DHT22;3823;53.586;10.040;2023-02-05T04:56:13;0.00;99.90
7564;DHT22;3823;53.586;10.040;2023-02-05T04:58:39;0.00;99.90
7564;DHT22;3823;53.586;10.040;2023-02-05T05:01:13;0.00;99.90
7564;DHT22;3823;53.586;10.040;2023-02-05T05:03:39;0.00;99.90
7564;DHT22;3823;53.586;10.040;2023-02-05T05:06:06;-0.10;99.90
7564;DHT22;3823;53.586;10.040;2023-02-05T05:08:32;-0.10;99.90
7564;DHT22;3823;53.586;10.040;2023-02-05T05:10:57;-0.10;99.90
7564;DHT22;3823;53.586;10.040;2023-02-05T05:13:23;-0.10;99.90
7564;DHT22;3823;53.586;10.040;2023-02-05T05:15:53;0.00;99.90
7564;DHT22;3823;53.586;10.040;2023-02-05T05:18:19;0.00;99.90
7564;DHT22;3823;53.586;10.040;2023-02-05T05:20:44;0.00;99.90
7564;DHT22;3823;53.586;10.040;2023-02-05T05:23:10;0.00;99.90
7564;DHT22;3823;53.586;10.040;2023-02-05T05:25:41;0.10;99.90
7564;DHT22;3823;53.586;10.040;2023-02-05T05:28:06;0.10;99.90
7564;DHT22;3823;53.586;10.040;2023-02-05T05:30:32;0.00;99.90
7564;DHT22;3823;53.586;10.040;2023-02-05T05:32:57;0.00;99.90
7564;DHT22;3823;53.586;10.040;2023-02-05T05:35:23;-0.10;99.90
7564;DHT22;3823;53.586;10.040;2023-02-05T05:37:48;-0.10;99.90
7564;DHT22;3823;53.586;10.040;2023-02-05T05:40:14;-0.10;99.90
7564;DHT22;3823;53.586;10.040;2023-02-05T05:42:58;0.00;99.90
7564;DHT22;3823;53.586;10.040;2023-02-05T05:45:42;0.00;99.90
7564;DHT22;3823;53.586;10.040;2023-02-05T05:48:07;0.00;99.90
7564;DHT22;3823;53.586;10.040;2023-02-05T05:50:33;0.00;99.90
7564;DHT22;3823;53.586;10.040;2023-02-05T05:52:59;0.10;99.90
7564;DHT22;3823;53.586;10.040;2023-02-05T05:55:24;0.00;99.90
7564;DHT22;3823;53.586;10.040;2023-02-05T05:57:50;0.00;99.90
7564;DHT22;3823;53.586;10.040;2023-02-05T06:00:15;-0.10;99.90
7564;DHT22;3823;53.586;10.040;2023-02-05T06:02:41;-0.10;99.90
7564;DHT22;3823;53.586;10.040;2023-02-05T06:05:09;-0.10;99.90
7564;DHT22;3823;53.586;10.040;2023-02-05T06:07:35;-0.10;99.90
7564;DHT22;3823;53.586;10.040;2023-02-05T06:10:00;-0.10;99.90
7564;DHT22;3823;53.586;10.040;2023-02-05T06:12:26;-0.10;99.90
7564;DHT22;3823;53.586;10.040;2023-02-05T06:14:51;0.00;99.90
7564;DHT22;3823;53.586;10.040;2023-02-05T06:17:17;0.00;99.90
7564;DHT22;3823;53.586;10.040;2023-02-05T06:19:42;0.00;99.90
7564;DHT22;3823;53.586;10.040;2023-02-05T06:22:08;0.00;99.90
7564;DHT22;3823;53.586;10.040;2023-02-05T06:24:33;0.00;99.90
7564;DHT22;3823;53.586;10.040;2023-02-05T06:26:59;0.00;99.90
7564;DHT22;3823;53.586;10.040;2023-02-05T06:29:24;-0.10;99.90
7564;DHT22;3823;53.586;10.040;2023-02-05T06:31:50;-0.10;99.90
7564;DHT22;3823;53.586;10.040;2023-02-05T06:34:15;0.00;99.90
7564;DHT22;3823;53.586;10.040;2023-02-05T06:36:41;0.00;99.90
7564;DHT22;3823;53.586;10.040;2023-02-05T06:39:07;0.00;99.90
7564;DHT22;3823;53.586;10.040;2023-02-05T06:41:32;0.00;99.90
7564;DHT22;3823;53.586;10.040;2023-02-05T06:43:58;0.10;99.90
7564;DHT22;3823;53.586;10.040;2023-02-05T06:46:23;0.20;99.90
7564;DHT22;3823;53.586;10.040;2023-02-05T06:48:49;0.20;99.90
7564;DHT22;3823;53.586;10.040;2023-02-05T06:51:14;0.20;99.90
7564;DHT22;3823;53.586;10.040;2023-02-05T06:53:40;0.20;99.90
7564;DHT22;3823;53.586;10.040;2023-02-05T06:56:05;0.30;99.90
7564;DHT22;3823;53.586;10.040;2023-02-05T06:58:31;0.40;99.90
7564;DHT22;3823;53.586;10.040;2023-02-05T07:00:56;0.40;99.90
7564;DHT22;3823;53.586;10.040;2023-02-05T07:03:22;0.30;99.90
7564;DHT22;3823;53.586;10.040;2023-02-05T07:05:47;0.10;99.90
7564;DHT22;3823;53.586;10.040;2023-02-05T07:08:13;0.10;99.90
7564;DHT22;3823;53.586;10.040;2023-02-05T07:10:38;0.10;99.90
7564;DHT22;3823;53.586;10.040;2023-02-05T07:13:04;0.10;99.90
7564;DHT22;3823;53.586;10.040;2023-02-05T07:15:29;0.10;99.90
7564;DHT22;3823;53.586;10.040;2023-02-05T07:17:55;0.10;99.90
7564;DHT22;3823;53.586;10.040;2023-02-05T07:20:21;0.10;99.90
7564;DHT22;3823;53.586;10.040;2023-02-05T07:22:47;0.10;99.90
7564;DHT22;3823;53.586;10.040;2023-02-05T07:25:13;0.10;99.90
7564;DHT22;3823;53.586;10.040;2023-02-05T07:27:38;0.10;99.90
7564;DHT22;3823;53.586;10.040;2023-02-05T07:30:04;0.10;99.90
7564;DHT22;3823;53.586;10.040;2023-02-05T07:32:30;0.10;99.90
7564;DHT22;3823;53.586;10.040;2023-02-05T07:34:56;0.10;99.90
7564;DHT22;3823;53.586;10.040;2023-02-05T07:37:21;0.10;99.90
7564;DHT22;3823;53.586;10.040;2023-02-05T07:39:47;0.10;99.90
7564;DHT22;3823;53.586;10.040;2023-02-05T07:42:12;0.10;99.90
7564;DHT22;3823;53.586;10.040;2023-02-05T07:44:38;0.20;99.90
7564;DHT22;3823;53.586;10.040;2023-02-05T07:47:03;0.20;99.90
7564;DHT22;3823;53.586;10.040;2023-02-05T07:49:29;0.20;99.90
7564;DHT22;3823;53.586;10.040;2023-02-05T07:51:54;0.30;99.90
7564;DHT22;3823;53.586;10.040;2023-02-05T07:54:20;0.20;99.90
7564;DHT22;3823;53.586;10.040;2023-02-05T07:56:45;0.20;99.90
7564;DHT22;3823;53.586;10.040;2023-02-05T07:59:11;0.20;99.90
7564;DHT22;3823;53.586;10.040;2023-02-05T08:01:36;0.20;99.90
7564;DHT22;3823;53.586;10.040;2023-02-05T08:04:02;0.20;99.90
7564;DHT22;3823;53.586;10.040;2023-02-05T08:06:27;0.20;99.90
7564;DHT22;3823;53.586;10.040;2023-02-05T08:08:53;0.20;99.90
7564;DHT22;3823;53.586;10.040;2023-02-05T08:11:20;0.30;99.90
7564;DHT22;3823;53.586;10.040;2023-02-05T08:13:45;0.30;99.90
7564;DHT22;3823;53.586;10.040;2023-02-05T08:16:12;0.30;99.90
7564;DHT22;3823;53.586;10.040;2023-02-05T08:18:39;0.40;99.90
7564;DHT22;3823;53.586;10.040;2023-02-05T08:21:05;0.30;99.90
7564;DHT22;3823;53.586;10.040;2023-02-05T08:23:31;0.40;99.90
7564;DHT22;3823;53.586;10.040;2023-02-05T08:25:57;0.40;99.90
7564;DHT22;3823;53.586;10.040;2023-02-05T08:28:24;0.40;99.90
7564;DHT22;3823;53.586;10.040;2023-02-05T08:30:50;0.40;99.90
7564;DHT22;3823;53.586;10.040;2023-02-05T08:33:16;0.50;99.90
7564;DHT22;3823;53.586;10.040;2023-02-05T08:35:42;0.50;99.90
7564;DHT22;3823;53.586;10.040;2023-02-05T08:38:10;0.60;99.90
7564;DHT22;3823;53.586;10.040;2023-02-05T08:40:36;0.60;99.90
7564;DHT22;3823;53.586;10.040;2023-02-05T08:43:05;0.70;99.90
7564;DHT22;3823;53.586;10.040;2023-02-05T08:45:33;0.70;99.90
7564;DHT22;3823;53.586;10.040;2023-02-05T08:48:05;0.70;99.90
7564;DHT22;3823;53.586;10.040;2023-02-05T08:50:33;0.70;99.90
7564;DHT22;3823;53.586;10.040;2023-02-05T08:53:04;0.70;99.90
7564;DHT22;3823;53.586;10.040;2023-02-05T08:55:31;0.70;99.90
7564;DHT22;3823;53.586;10.040;2023-02-05T08:57:59;0.80;99.90
7564;DHT22;3823;53.586;10.040;2023-02-05T09:00:27;0.80;99.90
7564;DHT22;3823;53.586;10.040;2023-02-05T09:02:53;0.90;99.90
7564;DHT22;3823;53.586;10.040;2023-02-05T09:05:19;0.90;99.90
7564;DHT22;3823;53.586;10.040;2023-02-05T09:07:44;1.00;99.90
7564;DHT22;3823;53.586;10.040;2023-02-05T09:10:11;1.00;99.90
7564;DHT22;3823;53.586;10.040;2023-02-05T09:12:37;1.10;99.90
7564;DHT22;3823;53.586;10.040;2023-02-05T09:15:04;1.10;99.90
7564;DHT22;3823;53.586;10.040;2023-02-05T09:17:30;1.00;99.90
7564;DHT22;3823;53.586;10.040;2023-02-05T09:19:56;1.00;99.90
7564;DHT22;3823;53.586;10.040;2023-02-05T09:22:21;1.00;99.90
7564;DHT22;3823;53.586;10.040;2023-02-05T09:24:47;1.10;99.90
7564;DHT22;3823;53.586;10.040;2023-02-05T09:27:12;1.10;99.90
7564;DHT22;3823;53.586;10.040;2023-02-05T09:29:40;1.20;99.90
7564;DHT22;3823;53.586;10.040;2023-02-05T09:32:05;1.20;99.90
7564;DHT22;3823;53.586;10.040;2023-02-05T09:34:31;1.10;99.90
7564;DHT22;3823;53.586;10.040;2023-02-05T09:36:57;1.10;99.90
7564;DHT22;3823;53.586;10.040;2023-02-05T09:39:22;1.20;99.90
7564;DHT22;3823;53.586;10.040;2023-02-05T09:41:58;1.30;99.90
7564;DHT22;3823;53.586;10.040;2023-02-05T09:49:57;1.40;99.90
7564;DHT22;3823;53.586;10.040;2023-02-05T09:52:32;1.40;99.90
7564;DHT22;3823;53.586;10.040;2023-02-05T09:55:21;1.50;99.90
7564;DHT22;3823;53.586;10.040;2023-02-05T09:57:48;1.50;99.90
7564;DHT22;3823;53.586;10.040;2023-02-05T10:00:20;1.50;97.00
7564;DHT22;3823;53.586;10.040;2023-02-05T10:11:00;1.60;99.90
7564;DHT22;3823;53.586;10.040;2023-02-05T10:13:33;1.60;55.80
7564;DHT22;3823;53.586;10.040;2023-02-05T10:16:15;1.40;95.20
7564;DHT22;3823;53.586;10.040;2023-02-05T10:21:32;1.40;99.90
7564;DHT22;3823;53.586;10.040;2023-02-05T10:24:38;1.50;99.90
7564;DHT22;3823;53.586;10.040;2023-02-05T10:27:16;1.60;95.10
7564;DHT22;3823;53.586;10.040;2023-02-05T10:32:46;1.60;99.70
7564;DHT22;3823;53.586;10.040;2023-02-05T10:35:29;1.60;99.90
7564;DHT22;3823;53.586;10.040;2023-02-05T10:37:58;1.70;99.90
7564;DHT22;3823;53.586;10.040;2023-02-05T10:40:28;1.70;82.40
7564;DHT22;3823;53.586;10.040;2023-02-05T10:45:28;1.80;36.20
7564;DHT22;3823;53.586;10.040;2023-02-05T10:48:21;1.80;61.90
7564;DHT22;3823;53.586;10.040;2023-02-05T10:50:59;2.00;51.60
7564;DHT22;3823;53.586;10.040;2023-02-05T10:53:26;2.10;19.50
7564;DHT22;3823;53.586;10.040;2023-02-05T10:55:52;2.30;1.00
7564;DHT22;3823;53.586;10.040;2023-02-05T10:58:37;2.20;1.00
7564;DHT22;3823;53.586;10.040;2023-02-05T11:01:11;2.00;19.80
7564;DHT22;3823;53.586;10.040;2023-02-05T11:03:38;1.90;49.90
7564;DHT22;3823;53.586;10.040;2023-02-05T11:06:08;2.00;80.60
7564;DHT22;3823;53.586;10.040;2023-02-05T11:08:40;2.00;26.00
7564;DHT22;3823;53.586;10.040;2023-02-05T11:11:10;2.10;24.90
7564;DHT22;3823;53.586;10.040;2023-02-05T11:13:49;2.10;41.10
7564;DHT22;3823;53.586;10.040;2023-02-05T11:16:16;2.20;81.60
7564;DHT22;3823;53.586;10.040;2023-02-05T11:18:45;2.60;99.90
7564;DHT22;3823;53.586;10.040;2023-02-05T11:21:11;2.60;1.00
7564;DHT22;3823;53.586;10.040;2023-02-05T11:23:38;2.40;1.00
7564;DHT22;3823;53.586;10.040;2023-02-05T11:26:17;2.30;1.00
7564;DHT22;3823;53.586;10.040;2023-02-05T11:28:43;2.10;1.00
7564;DHT22;3823;53.586;10.040;2023-02-05T11:31:28;2.00;19.30
7564;DHT22;3823;53.586;10.040;2023-02-05T11:34:10;2.10;83.40
7564;DHT22;3823;53.586;10.040;2023-02-05T11:36:50;2.20;22.10
7564;DHT22;3823;53.586;10.040;2023-02-05T11:39:33;2.20;12.00
7564;DHT22;3823;53.586;10.040;2023-02-05T11:42:22;2.30;7.30
7564;DHT22;3823;53.586;10.040;2023-02-05T11:44:51;2.30;1.00
7564;DHT22;3823;53.586;10.040;2023-02-05T11:49:50;2.30;12.90
7564;DHT22;3823;53.586;10.040;2023-02-05T11:52:26;2.20;26.80
7564;DHT22;3823;53.586;10.040;2023-02-05T11:54:53;2.20;11.70
7564;DHT22;3823;53.586;10.040;2023-02-05T11:59:54;2.20;1.00
7564;DHT22;3823;53.586;10.040;2023-02-05T12:05:09;2.30;16.20
7564;DHT22;3823;53.586;10.040;2023-02-05T12:16:10;2.50;1.00
7564;DHT22;3823;53.586;10.040;2023-02-05T12:21:36;2.60;1.00
7564;DHT22;3823;53.586;10.040;2023-02-05T12:24:21;2.70;1.00
7564;DHT22;3823;53.586;10.040;2023-02-05T12:26:50;2.70;1.00
7564;DHT22;3823;53.586;10.040;2023-02-05T12:32:56;2.80;1.00
7564;DHT22;3823;53.586;10.040;2023-02-05T12:38:25;2.70;1.00
7564;DHT22;3823;53.586;10.040;2023-02-05T12:59:00;2.70;7.60
7564;DHT22;3823;53.586;10.040;2023-02-05T13:01:51;2.90;1.00
7564;DHT22;3823;53.586;10.040;2023-02-05T13:04:26;2.90;1.00
7564;DHT22;3823;53.586;10.040;2023-02-05T13:07:41;3.10;1.00
7564;DHT22;3823;53.586;10.040;2023-02-05T13:10:01;3.20;1.00
7564;DHT22;3823;53.586;10.040;2023-02-05T13:12:33;3.30;1.00
7564;DHT22;3823;53.586;10.040;2023-02-05T13:15:20;3.40;1.00
7564;DHT22;3823;53.586;10.040;2023-02-05T13:18:11;3.30;1.00
7564;DHT22;3823;53.586;10.040;2023-02-05T13:20:45;3.30;1.00
7564;DHT22;3823;53.586;10.040;2023-02-05T13:23:34;3.30;1.00
7564;DHT22;3823;53.586;10.040;2023-02-05T13:26:31;3.30;1.00
7564;DHT22;3823;53.586;10.040;2023-02-05T13:29:18;3.30;1.00
7564;DHT22;3823;53.586;10.040;2023-02-05T13:31:50;3.30;1.00
7564;DHT22;3823;53.586;10.040;2023-02-05T13:34:18;3.30;1.00
7564;DHT22;3823;53.586;10.040;2023-02-05T13:42:50;3.30;1.00
7564;DHT22;3823;53.586;10.040;2023-02-05T13:45:56;3.30;1.00
7564;DHT22;3823;53.586;10.040;2023-02-05T13:48:44;3.30;1.00
7564;DHT22;3823;53.586;10.040;2023-02-05T13:51:34;3.40;1.00
7564;DHT22;3823;53.586;10.040;2023-02-05T13:54:19;3.50;1.00
7564;DHT22;3823;53.586;10.040;2023-02-05T13:59:45;3.70;1.00
7564;DHT22;3823;53.586;10.040;2023-02-05T14:02:35;3.70;1.00
7564;DHT22;3823;53.586;10.040;2023-02-05T14:05:02;3.70;1.00
7564;DHT22;3823;53.586;10.040;2023-02-05T14:07:43;3.70;1.00
7564;DHT22;3823;53.586;10.040;2023-02-05T14:12:49;3.80;1.00
7564;DHT22;3823;53.586;10.040;2023-02-05T14:22:54;3.70;1.00
7564;DHT22;3823;53.586;10.040;2023-02-05T14:28:00;3.70;1.00
7564;DHT22;3823;53.586;10.040;2023-02-05T14:39:05;3.50;1.00
7564;DHT22;3823;53.586;10.040;2023-02-05T14:41:44;3.40;1.00
7564;DHT22;3823;53.586;10.040;2023-02-05T14:44:30;3.50;1.00
7564;DHT22;3823;53.586;10.040;2023-02-05T14:49:38;3.50;1.00
7564;DHT22;3823;53.586;10.040;2023-02-05T15:00:38;3.70;1.00
7564;DHT22;3823;53.586;10.040;2023-02-05T15:16:43;3.90;1.00
7564;DHT22;3823;53.586;10.040;2023-02-05T15:19:10;3.80;1.00
7564;DHT22;3823;53.586;10.040;2023-02-05T15:21:42;3.90;1.00
7564;DHT22;3823;53.586;10.040;2023-02-05T15:24:22;3.90;1.00
7564;DHT22;3823;53.586;10.040;2023-02-05T15:27:04;3.90;1.00
7564;DHT22;3823;53.586;10.040;2023-02-05T15:29:51;3.80;1.00
7564;DHT22;3823;53.586;10.040;2023-02-05T15:32:37;3.80;1.00
7564;DHT22;3823;53.586;10.040;2023-02-05T15:35:18;3.80;1.00
7564;DHT22;3823;53.586;10.040;2023-02-05T15:37:53;3.70;1.00
7564;DHT22;3823;53.586;10.040;2023-02-05T15:40:24;3.70;1.00
7564;DHT22;3823;53.586;10.040;2023-02-05T15:42:55;3.70;1.00
7564;DHT22;3823;53.586;10.040;2023-02-05T15:45:30;3.70;1.00
7564;DHT22;3823;53.586;10.040;2023-02-05T15:50:46;3.80;1.00
7564;DHT22;3823;53.586;10.040;2023-02-05T15:55:59;3.80;1.00
7564;DHT22;3823;53.586;10.040;2023-02-05T15:58:25;3.80;1.00
7564;DHT22;3823;53.586;10.040;2023-02-05T16:00:52;3.80;1.00
7564;DHT22;3823;53.586;10.040;2023-02-05T16:03:30;3.80;1.00
7564;DHT22;3823;53.586;10.040;2023-02-05T16:05:59;3.80;1.00
7564;DHT22;3823;53.586;10.040;2023-02-05T16:08:25;3.80;1.00
7564;DHT22;3823;53.586;10.040;2023-02-05T16:11:01;3.80;1.00
7564;DHT22;3823;53.586;10.040;2023-02-05T16:13:30;3.80;1.00
7564;DHT22;3823;53.586;10.040;2023-02-05T16:16:14;3.80;1.00
7564;DHT22;3823;53.586;10.040;2023-02-05T16:26:29;3.80;20.40
7564;DHT22;3823;53.586;10.040;2023-02-05T16:29:02;3.80;22.60
7564;DHT22;3823;53.586;10.040;2023-02-05T16:31:29;3.80;42.40
7564;DHT22;3823;53.586;10.040;2023-02-05T16:34:06;3.80;43.90
7564;DHT22;3823;53.586;10.040;2023-02-05T16:36:36;3.80;34.30
7564;DHT22;3823;53.586;10.040;2023-02-05T16:39:04;3.80;55.10
7564;DHT22;3823;53.586;10.040;2023-02-05T16:41:36;3.80;94.30
7564;DHT22;3823;53.586;10.040;2023-02-05T16:44:04;3.70;99.90
7564;DHT22;3823;53.586;10.040;2023-02-05T16:46:35;3.70;99.90
7564;DHT22;3823;53.586;10.040;2023-02-05T16:49:27;3.80;99.90
7564;DHT22;3823;53.586;10.040;2023-02-05T16:51:54;3.80;99.90
7564;DHT22;3823;53.586;10.040;2023-02-05T16:54:32;3.70;99.90
7564;DHT22;3823;53.586;10.040;2023-02-05T16:57:13;3.70;99.90
7564;DHT22;3823;53.586;10.040;2023-02-05T16:59:56;3.70;99.90
7564;DHT22;3823;53.586;10.040;2023-02-05T17:02:37;3.70;99.90
7564;DHT22;3823;53.586;10.040;2023-02-05T17:07:58;3.60;99.90
7564;DHT22;3823;53.586;10.040;2023-02-05T17:10:24;3.60;99.90
7564;DHT22;3823;53.586;10.040;2023-02-05T17:12:53;3.70;99.90
7564;DHT22;3823;53.586;10.040;2023-02-05T17:17:57;3.70;99.90
7564;DHT22;3823;53.586;10.040;2023-02-05T17:20:27;3.70;99.90
7564;DHT22;3823;53.586;10.040;2023-02-05T17:25:28;3.70;99.90
7564;DHT22;3823;53.586;10.040;2023-02-05T17:27:55;3.70;99.90
7564;DHT22;3823;53.586;10.040;2023-02-05T17:30:21;3.60;99.90
7564;DHT22;3823;53.586;10.040;2023-02-05T17:32:47;3.70;99.90
7564;DHT22;3823;53.586;10.040;2023-02-05T17:35:19;3.70;99.90
7564;DHT22;3823;53.586;10.040;2023-02-05T17:37:53;3.70;99.90
7564;DHT22;3823;53.586;10.040;2023-02-05T17:40:19;3.70;99.90
7564;DHT22;3823;53.586;10.040;2023-02-05T17:42:46;3.70;99.90
7564;DHT22;3823;53.586;10.040;2023-02-05T17:45:24;3.60;99.90
7564;DHT22;3823;53.586;10.040;2023-02-05T17:47:50;3.60;99.90
7564;DHT22;3823;53.586;10.040;2023-02-05T17:50:16;3.60;99.90
7564;DHT22;3823;53.586;10.040;2023-02-05T17:52:43;3.50;99.90
7564;DHT22;3823;53.586;10.040;2023-02-05T17:55:17;3.60;99.90
7564;DHT22;3823;53.586;10.040;2023-02-05T17:57:44;3.60;99.90
7564;DHT22;3823;53.586;10.040;2023-02-05T18:00:17;3.60;99.90
7564;DHT22;3823;53.586;10.040;2023-02-05T18:02:43;3.60;99.90
7564;DHT22;3823;53.586;10.040;2023-02-05T18:05:09;3.60;99.90
7564;DHT22;3823;53.586;10.040;2023-02-05T18:07:43;3.60;99.90
7564;DHT22;3823;53.586;10.040;2023-02-05T18:10:15;3.60;99.90
7564;DHT22;3823;53.586;10.040;2023-02-05T18:12:41;3.60;99.90
7564;DHT22;3823;53.586;10.040;2023-02-05T18:15:07;3.60;99.90
7564;DHT22;3823;53.586;10.040;2023-02-05T18:17:33;3.60;99.90
7564;DHT22;3823;53.586;10.040;2023-02-05T18:19:59;3.50;99.90
7564;DHT22;3823;53.586;10.040;2023-02-05T18:22:25;3.60;99.90
7564;DHT22;3823;53.586;10.040;2023-02-05T18:24:50;3.60;99.90
7564;DHT22;3823;53.586;10.040;2023-02-05T18:27:16;3.50;99.90
7564;DHT22;3823;53.586;10.040;2023-02-05T18:29:42;3.60;99.90
7564;DHT22;3823;53.586;10.040;2023-02-05T18:32:08;3.50;99.90
7564;DHT22;3823;53.586;10.040;2023-02-05T18:34:33;3.50;99.90
7564;DHT22;3823;53.586;10.040;2023-02-05T18:36:59;3.50;99.90
7564;DHT22;3823;53.586;10.040;2023-02-05T18:39:24;3.40;99.90
7564;DHT22;3823;53.586;10.040;2023-02-05T18:41:54;3.40;99.90
7564;DHT22;3823;53.586;10.040;2023-02-05T18:44:20;3.40;99.90
7564;DHT22;3823;53.586;10.040;2023-02-05T18:46:46;3.40;99.90
7564;DHT22;3823;53.586;10.040;2023-02-05T18:49:11;3.40;1.00
7564;DHT22;3823;53.586;10.040;2023-02-05T18:51:37;3.40;1.00
7564;DHT22;3823;53.586;10.040;2023-02-05T18:54:03;3.40;1.00
7564;DHT22;3823;53.586;10.040;2023-02-05T18:56:31;3.40;1.00
7564;DHT22;3823;53.586;10.040;2023-02-05T18:58:58;3.40;1.00
7564;DHT22;3823;53.586;10.040;2023-02-05T19:01:27;3.40;1.00
7564;DHT22;3823;53.586;10.040;2023-02-05T19:03:54;3.40;1.00
7564;DHT22;3823;53.586;10.040;2023-02-05T19:06:21;3.40;1.00
7564;DHT22;3823;53.586;10.040;2023-02-05T19:08:47;3.50;1.00